Sauk Rapids, Minnesota
Current Conditions -  °F | °C
As of 2:53 PM on Thursday 27 Nov 2014 (Local Time) from KSTC Reporting Station
Clear Clear  
Wind Chill: -3°   Ceiling: Unl
Heat Index:   Visibility: 10mi
Dew Point: -6°   Wind: 6mph
Humidity: 55%   Direction: 210°SSW
Pressure: 30.4"   Gusts: NA
Location:  45.59°N, 94.17°W
Report Text: KSTC 272053Z 21005KT 10SM CLR M14/M21 A3040 RMK AO2 SLP333 T11391211 56019
Loading
Personal Weather Stations






























Interactive Weather Map New forecast layout! Learn more

10-Day Weather Forecast

Advertisements
Track Severe Weather on mobile